createdAt,value
2023-04-08T00:01:04.483Z,14.77
2023-04-08T00:03:31.495Z,13.75
2023-04-08T00:06:00.235Z,13.52
2023-04-08T00:08:26.956Z,12.43
2023-04-08T00:10:54.056Z,13.93
2023-04-08T00:13:20.836Z,14.30
2023-04-08T00:15:47.991Z,13.57
2023-04-08T00:18:15.889Z,13.68
2023-04-08T00:20:43.447Z,13.10
2023-04-08T00:23:10.426Z,14.75
2023-04-08T00:25:37.563Z,14.07
2023-04-08T00:28:04.564Z,15.07
2023-04-08T00:30:31.765Z,14.30
2023-04-08T00:32:58.589Z,15.75
2023-04-08T00:35:25.913Z,16.52
2023-04-08T00:37:52.722Z,17.27
2023-04-08T00:40:19.794Z,18.05
2023-04-08T00:42:46.641Z,18.85
2023-04-08T00:45:13.772Z,19.33
2023-04-08T00:47:40.629Z,19.20
2023-04-08T00:50:09.244Z,22.02
2023-04-08T00:52:36.206Z,18.55
2023-04-08T00:55:03.454Z,20.90
2023-04-08T00:57:30.225Z,19.75
2023-04-08T00:59:57.241Z,18.20
2023-04-08T01:02:34.195Z,19.63
2023-04-08T01:05:07.047Z,18.55
2023-04-08T01:07:35.704Z,20.00
2023-04-08T01:10:08.099Z,20.15
2023-04-08T01:12:42.222Z,22.30
2023-04-08T01:15:11.033Z,22.27
2023-04-08T01:17:37.862Z,22.13
2023-04-08T01:20:06.074Z,20.70
2023-04-08T01:26:44.724Z,20.73
2023-04-08T01:29:11.481Z,20.50
2023-04-08T01:31:38.632Z,20.67
2023-04-08T01:34:06.515Z,20.20
2023-04-08T01:36:33.773Z,21.83
2023-04-08T01:39:01.000Z,20.40
2023-04-08T01:41:28.091Z,20.67
2023-04-08T01:43:54.900Z,21.65
2023-04-08T01:46:22.062Z,20.08
2023-04-08T01:48:49.182Z,21.77
2023-04-08T01:51:16.395Z,18.92
2023-04-08T01:53:44.291Z,20.10
2023-04-08T01:56:12.969Z,20.00
2023-04-08T01:58:51.278Z,19.05
2023-04-08T02:01:20.268Z,19.33
2023-04-08T02:03:47.605Z,20.00
2023-04-08T02:06:14.777Z,20.70
2023-04-08T02:08:41.626Z,19.05
2023-04-08T02:11:08.689Z,18.95
2023-04-08T02:13:35.427Z,18.88
2023-04-08T02:16:13.187Z,18.25
2023-04-08T02:18:39.911Z,19.05
2023-04-08T02:21:10.429Z,17.63
2023-04-08T02:23:38.689Z,18.35
2023-04-08T02:26:14.454Z,17.55
2023-04-08T02:28:42.072Z,18.05
2023-04-08T02:31:13.559Z,17.30
2023-04-08T02:33:40.513Z,17.92
2023-04-08T02:36:07.832Z,16.55
2023-04-08T02:38:34.659Z,17.58
2023-04-08T02:41:01.790Z,16.67
2023-04-08T02:43:34.704Z,17.05
2023-04-08T02:46:04.749Z,16.15
2023-04-08T02:48:31.642Z,16.40
2023-04-08T02:50:58.794Z,16.42
2023-04-08T02:53:25.656Z,16.10
2023-04-08T02:55:52.744Z,16.27
2023-04-08T02:58:19.543Z,16.77
2023-04-08T03:00:46.748Z,15.88
2023-04-08T03:03:13.626Z,16.60
2023-04-08T03:05:41.261Z,15.75
2023-04-08T03:08:08.102Z,15.27
2023-04-08T03:10:35.436Z,16.23
2023-04-08T03:13:02.220Z,14.63
2023-04-08T03:15:29.334Z,14.88
2023-04-08T03:17:56.453Z,15.05
2023-04-08T03:20:23.554Z,14.40
2023-04-08T03:22:50.523Z,13.70
2023-04-08T03:25:17.687Z,15.80
2023-04-08T03:27:44.500Z,15.88
2023-04-08T03:30:12.006Z,14.77
2023-04-08T03:32:38.934Z,16.65
2023-04-08T03:35:06.353Z,14.40
2023-04-08T03:37:33.206Z,15.65
2023-04-08T03:40:00.556Z,14.80
2023-04-08T03:42:27.374Z,15.23
2023-04-08T03:44:54.455Z,15.57
2023-04-08T03:47:21.179Z,14.07
2023-04-08T03:49:48.293Z,15.50
2023-04-08T03:52:15.052Z,15.00
2023-04-08T03:54:42.113Z,15.38
2023-04-08T03:57:08.833Z,15.70
2023-04-08T03:59:36.805Z,15.63
2023-04-08T04:02:03.605Z,14.95
2023-04-08T04:04:30.860Z,15.48
2023-04-08T04:06:57.749Z,15.45
2023-04-08T04:09:24.900Z,16.13
2023-04-08T04:11:51.656Z,15.57
2023-04-08T04:14:18.732Z,15.75
2023-04-08T04:16:45.475Z,16.17
2023-04-08T04:19:12.607Z,16.90
2023-04-08T04:21:39.381Z,17.13
2023-04-08T04:24:06.475Z,16.30
2023-04-08T04:26:33.303Z,16.83
2023-04-08T04:29:00.393Z,17.73
2023-04-08T04:31:27.535Z,16.83
2023-04-08T04:33:54.832Z,18.13
2023-04-08T04:36:21.653Z,16.98
2023-04-08T04:38:50.592Z,17.67
2023-04-08T04:41:17.861Z,18.92
2023-04-08T04:43:45.023Z,18.85
2023-04-08T04:46:11.910Z,18.23
2023-04-08T04:48:39.118Z,17.92
2023-04-08T04:51:07.574Z,17.38
2023-04-08T04:53:34.764Z,18.90
2023-04-08T04:56:02.072Z,17.45
2023-04-08T04:58:29.782Z,16.92
2023-04-08T05:00:56.846Z,18.73
2023-04-08T05:03:23.707Z,17.45
2023-04-08T05:05:54.501Z,17.65
2023-04-08T05:08:21.441Z,18.20
2023-04-08T05:10:50.683Z,17.88
2023-04-08T05:13:18.454Z,18.10
2023-04-08T05:15:46.028Z,18.50
2023-04-08T05:18:13.023Z,18.55
2023-04-08T05:20:40.331Z,17.90
2023-04-08T05:23:07.815Z,18.38
2023-04-08T05:25:34.975Z,18.60
2023-04-08T05:28:01.906Z,17.98
2023-04-08T05:30:29.085Z,18.38
2023-04-08T05:32:58.486Z,19.05
2023-04-08T05:35:27.313Z,17.13
2023-04-08T05:37:54.134Z,18.20
2023-04-08T05:40:21.306Z,18.48
2023-04-08T05:42:48.113Z,17.98
2023-04-08T05:45:16.190Z,18.05
2023-04-08T05:47:42.998Z,18.25
2023-04-08T05:50:11.393Z,18.00
2023-04-08T05:52:41.818Z,18.58
2023-04-08T05:55:09.162Z,19.17
2023-04-08T05:57:36.186Z,18.67
2023-04-08T06:00:08.371Z,18.08
2023-04-08T06:02:36.099Z,18.05
2023-04-08T06:05:03.999Z,17.85
2023-04-08T06:07:31.087Z,18.08
2023-04-08T06:09:58.211Z,15.95
2023-04-08T06:12:25.020Z,16.90
2023-04-08T06:14:56.179Z,16.85
2023-04-08T06:17:23.309Z,16.08
2023-04-08T06:19:50.467Z,17.17
2023-04-08T06:22:17.259Z,17.25
2023-04-08T06:24:44.372Z,16.77
2023-04-08T06:27:11.275Z,15.63
2023-04-08T06:29:38.813Z,17.15
2023-04-08T06:32:06.702Z,17.23
2023-04-08T06:34:33.787Z,15.93
2023-04-08T06:37:00.896Z,16.75
2023-04-08T06:39:27.934Z,16.52
2023-04-08T06:41:54.810Z,16.35
2023-04-08T06:44:21.944Z,16.88
2023-04-08T06:46:48.711Z,15.73
2023-04-08T06:49:15.923Z,17.05
2023-04-08T06:51:42.766Z,19.02
2023-04-08T06:54:12.682Z,16.15
2023-04-08T06:56:39.468Z,17.05
2023-04-08T06:59:06.556Z,16.85
2023-04-08T07:01:33.444Z,16.75
2023-04-08T07:04:02.397Z,17.83
2023-04-08T07:06:29.237Z,15.68
2023-04-08T07:08:56.380Z,14.68
2023-04-08T07:11:23.212Z,17.70
2023-04-08T07:13:50.766Z,15.10
2023-04-08T07:16:17.563Z,16.45
2023-04-08T07:18:44.916Z,16.40
2023-04-08T07:21:11.686Z,15.98
2023-04-08T07:23:38.836Z,15.38
2023-04-08T07:26:05.793Z,16.45
2023-04-08T07:28:32.974Z,15.02
2023-04-08T07:31:26.507Z,14.90
2023-04-08T07:33:53.805Z,15.35
2023-04-08T07:36:21.165Z,15.82
2023-04-08T07:38:48.515Z,15.40
2023-04-08T07:41:15.839Z,16.40
2023-04-08T07:43:43.013Z,14.90
2023-04-08T07:46:09.907Z,15.88
2023-04-08T07:48:37.143Z,15.63
2023-04-08T07:51:10.046Z,18.45
2023-04-08T07:53:38.853Z,18.30
2023-04-08T07:56:11.594Z,17.70
2023-04-08T07:58:40.405Z,19.33
2023-04-08T08:01:21.987Z,19.15
2023-04-08T08:03:50.995Z,18.70
2023-04-08T08:06:18.196Z,19.13
2023-04-08T08:08:45.813Z,17.30
2023-04-08T08:11:12.984Z,17.02
2023-04-08T08:13:40.273Z,17.52
2023-04-08T08:16:09.255Z,19.60
2023-04-08T08:18:37.062Z,18.05
2023-04-08T08:21:03.987Z,16.75
2023-04-08T08:23:31.165Z,16.50
2023-04-08T08:26:10.333Z,15.85
2023-04-08T08:28:38.493Z,17.00
2023-04-08T08:31:06.286Z,16.55
2023-04-08T08:33:33.592Z,16.85
2023-04-08T08:36:00.522Z,17.05
2023-04-08T08:38:27.724Z,16.65
2023-04-08T08:40:56.369Z,15.60
2023-04-08T08:43:24.496Z,15.20
2023-04-08T08:45:51.406Z,15.65
2023-04-08T08:48:18.640Z,15.73
2023-04-08T08:50:45.735Z,16.73
2023-04-08T08:53:13.042Z,15.43
2023-04-08T08:56:05.674Z,15.57
2023-04-08T08:58:29.355Z,15.60
2023-04-08T09:00:56.502Z,15.05
2023-04-08T09:03:24.828Z,13.27
2023-04-08T09:05:53.475Z,15.30
2023-04-08T09:08:34.521Z,14.48
2023-04-08T09:11:21.848Z,12.65
2023-04-08T09:13:49.419Z,13.95
2023-04-08T09:16:18.343Z,13.73
2023-04-08T09:18:47.304Z,12.95
2023-04-08T09:21:14.728Z,13.07
2023-04-08T09:23:46.828Z,13.23
2023-04-08T09:26:22.313Z,13.65
2023-04-08T09:29:18.338Z,13.15
2023-04-08T09:31:59.274Z,13.57
2023-04-08T09:34:27.768Z,13.67
2023-04-08T09:36:54.839Z,13.38
2023-04-08T09:39:22.042Z,12.43
2023-04-08T09:41:50.151Z,12.35
2023-04-08T09:44:18.589Z,11.90
2023-04-08T09:46:45.544Z,10.63
2023-04-08T09:49:13.817Z,11.02
2023-04-08T09:51:45.580Z,11.05
2023-04-08T09:54:15.076Z,9.88
2023-04-08T09:56:47.810Z,10.48
2023-04-08T09:59:18.669Z,10.90
2023-04-08T10:01:47.672Z,10.65
2023-04-08T10:04:16.395Z,9.77
2023-04-08T10:06:43.302Z,10.77
2023-04-08T10:09:10.554Z,10.15
2023-04-08T10:11:37.465Z,10.52
2023-04-08T10:14:04.782Z,10.70
2023-04-08T10:16:31.773Z,9.00
2023-04-08T10:18:59.077Z,10.55
2023-04-08T10:21:33.361Z,10.52
2023-04-08T10:24:01.540Z,10.65
2023-04-08T10:26:44.669Z,9.68
2023-04-08T10:29:17.899Z,10.15
2023-04-08T10:31:45.322Z,9.02
2023-04-08T10:34:19.318Z,9.07
2023-04-08T10:36:46.360Z,8.27
2023-04-08T10:39:13.946Z,8.60
2023-04-08T10:41:46.996Z,9.48
2023-04-08T10:44:20.901Z,8.40
2023-04-08T10:46:48.331Z,8.43
2023-04-08T10:49:15.919Z,8.30
2023-04-08T10:51:44.207Z,8.13
2023-04-08T10:54:12.941Z,8.63
2023-04-08T10:56:49.485Z,8.38
2023-04-08T10:59:17.830Z,8.18
2023-04-08T11:01:45.687Z,8.05
2023-04-08T11:04:18.488Z,8.88
2023-04-08T11:06:46.857Z,9.55
2023-04-08T11:09:14.349Z,8.77
2023-04-08T11:11:45.157Z,8.25
2023-04-08T11:14:13.866Z,8.93
2023-04-08T11:16:40.771Z,8.77
2023-04-08T11:19:08.020Z,7.93
2023-04-08T11:21:38.704Z,8.48
2023-04-08T11:24:13.351Z,7.88
2023-04-08T11:26:40.690Z,7.73
2023-04-08T11:29:12.794Z,8.00
2023-04-08T11:31:39.607Z,8.27
2023-04-08T11:34:07.452Z,8.23
2023-04-08T11:36:36.614Z,8.15
2023-04-08T11:39:08.362Z,8.10
2023-04-08T11:41:39.544Z,7.95
2023-04-08T11:44:09.597Z,8.65
2023-04-08T11:46:36.671Z,8.32
2023-04-08T11:49:04.831Z,8.60
2023-04-08T11:51:31.938Z,8.27
2023-04-08T11:53:59.149Z,8.57
2023-04-08T11:56:26.478Z,9.13
2023-04-08T11:58:53.713Z,9.55
2023-04-08T12:01:21.657Z,9.20
2023-04-08T12:03:59.432Z,8.75
2023-04-08T12:06:27.567Z,8.88
2023-04-08T12:08:55.844Z,9.35
2023-04-08T12:11:24.132Z,9.77
2023-04-08T12:13:52.931Z,9.40
2023-04-08T12:16:20.584Z,9.60
2023-04-08T12:18:47.865Z,9.82
2023-04-08T12:21:14.743Z,9.35
2023-04-08T12:23:41.912Z,8.55
2023-04-08T12:26:08.888Z,8.38
2023-04-08T12:28:36.331Z,9.13
2023-04-08T12:31:03.511Z,11.80
2023-04-08T12:33:30.884Z,11.13
2023-04-08T12:36:00.851Z,9.32
2023-04-08T12:38:28.052Z,9.88
2023-04-08T12:40:55.353Z,10.00
2023-04-08T12:43:23.693Z,11.65
2023-04-08T12:45:51.358Z,10.18
2023-04-08T12:48:18.546Z,9.50
2023-04-08T12:50:45.504Z,10.18
2023-04-08T12:53:12.672Z,9.73
2023-04-08T12:55:39.667Z,9.73
2023-04-08T12:58:06.864Z,9.85
2023-04-08T13:00:33.750Z,9.43
2023-04-08T13:03:01.268Z,9.45
2023-04-08T13:05:41.881Z,10.68
2023-04-08T13:08:11.958Z,10.68
2023-04-08T13:10:38.873Z,10.20
2023-04-08T13:13:06.681Z,10.07
2023-04-08T13:15:33.594Z,9.82
2023-04-08T13:18:01.053Z,9.68
2023-04-08T13:20:28.266Z,9.55
2023-04-08T13:22:55.673Z,9.63
2023-04-08T13:25:22.589Z,8.60
2023-04-08T13:27:49.710Z,9.82
2023-04-08T13:30:16.626Z,10.15
2023-04-08T13:32:43.861Z,10.27
2023-04-08T13:35:10.740Z,10.23
2023-04-08T13:37:37.837Z,11.75
2023-04-08T13:40:05.306Z,14.30
2023-04-08T13:42:32.897Z,17.60
2023-04-08T13:44:59.737Z,25.98
2023-04-08T13:47:27.202Z,28.20
2023-04-08T13:49:54.116Z,26.90
2023-04-08T13:52:21.344Z,26.13
2023-04-08T13:54:48.351Z,25.08
2023-04-08T13:57:15.486Z,24.52
2023-04-08T13:59:44.398Z,23.65
2023-04-08T14:02:12.962Z,23.85
2023-04-08T14:04:41.014Z,23.27
2023-04-08T14:07:08.277Z,23.45
2023-04-08T14:09:35.848Z,24.08
2023-04-08T14:12:02.937Z,23.20
2023-04-08T14:14:29.872Z,24.35
2023-04-08T14:16:57.204Z,24.27
2023-04-08T14:19:24.130Z,26.30
2023-04-08T14:21:51.388Z,25.17
2023-04-08T14:24:18.189Z,23.10
2023-04-08T14:26:45.482Z,22.02
2023-04-08T14:29:12.382Z,21.92
2023-04-08T14:31:39.560Z,21.45
2023-04-08T14:34:06.422Z,20.27
2023-04-08T14:36:33.838Z,19.58
2023-04-08T14:39:00.839Z,20.83
2023-04-08T14:41:28.125Z,17.73
2023-04-08T14:43:55.050Z,17.63
2023-04-08T14:46:22.364Z,17.85
2023-04-08T14:48:50.646Z,18.58
2023-04-08T14:51:18.133Z,17.58
2023-04-08T14:53:45.022Z,17.52
2023-04-08T14:56:13.368Z,17.55
2023-04-08T14:58:40.259Z,17.58
2023-04-08T15:01:07.405Z,17.17
2023-04-08T15:03:34.339Z,16.75
2023-04-08T15:06:01.968Z,17.00
2023-04-08T15:08:28.912Z,17.35
2023-04-08T15:10:57.040Z,17.30
2023-04-08T15:13:23.855Z,17.45
2023-04-08T15:15:51.710Z,19.83
2023-04-08T15:18:18.600Z,21.05
2023-04-08T15:20:46.131Z,22.02
2023-04-08T15:23:12.966Z,18.77
2023-04-08T15:25:40.170Z,19.23
2023-04-08T15:28:07.062Z,19.73
2023-04-08T15:30:35.685Z,18.27
2023-04-08T15:33:03.750Z,17.80
2023-04-08T15:35:31.448Z,17.05
2023-04-08T15:37:58.427Z,18.48
2023-04-08T15:40:25.907Z,17.63
2023-04-08T15:42:53.124Z,16.83
2023-04-08T15:45:20.628Z,16.80
2023-04-08T15:47:47.458Z,16.52
2023-04-08T15:50:15.307Z,14.90
2023-04-08T15:52:42.462Z,17.80
2023-04-08T15:55:10.031Z,17.15
2023-04-08T15:57:37.224Z,15.80
2023-04-08T16:00:11.182Z,15.60
2023-04-08T16:02:38.539Z,16.30
2023-04-08T16:05:06.304Z,16.23
2023-04-08T16:07:33.328Z,16.13
2023-04-08T16:10:00.617Z,14.93
2023-04-08T16:12:27.578Z,15.43
2023-04-08T16:14:54.908Z,15.02
2023-04-08T16:17:22.043Z,14.48
2023-04-08T16:19:50.766Z,14.48
2023-04-08T16:22:18.014Z,14.77
2023-04-08T16:24:45.351Z,17.10
2023-04-08T16:27:12.175Z,16.30
2023-04-08T16:29:39.617Z,15.82
2023-04-08T16:32:06.792Z,17.48
2023-04-08T16:34:34.670Z,17.05
2023-04-08T16:37:01.449Z,16.02
2023-04-08T16:39:28.714Z,17.83
2023-04-08T16:41:55.614Z,15.85
2023-04-08T16:44:22.848Z,15.88
2023-04-08T16:46:49.740Z,16.42
2023-04-08T16:49:18.222Z,17.00
2023-04-08T16:51:45.280Z,17.10
2023-04-08T16:54:12.672Z,15.25
2023-04-08T16:56:44.352Z,15.63
2023-04-08T16:59:12.598Z,15.93
2023-04-08T17:01:39.457Z,15.70
2023-04-08T17:04:06.813Z,14.38
2023-04-08T17:06:35.789Z,15.85
2023-04-08T17:09:03.920Z,15.80
2023-04-08T17:11:31.163Z,14.30
2023-04-08T17:13:58.434Z,14.13
2023-04-08T17:16:25.519Z,14.18
2023-04-08T17:18:52.831Z,13.07
2023-04-08T17:21:21.242Z,14.60
2023-04-08T17:23:48.500Z,13.68
2023-04-08T17:26:15.557Z,14.00
2023-04-08T17:28:45.401Z,12.23
2023-04-08T17:31:12.283Z,13.98
2023-04-08T17:33:39.413Z,13.68
2023-04-08T17:36:06.644Z,13.35
2023-04-08T17:38:33.880Z,13.88
2023-04-08T17:41:00.660Z,13.48
2023-04-08T17:43:27.831Z,12.90
2023-04-08T17:45:59.455Z,12.98
2023-04-08T17:48:27.007Z,12.05
2023-04-08T17:51:04.497Z,12.57
2023-04-08T17:53:32.291Z,13.25
2023-04-08T17:55:59.444Z,13.93
2023-04-08T17:58:27.322Z,12.77
2023-04-08T18:00:54.148Z,12.57
2023-04-08T18:03:21.654Z,12.80
2023-04-08T18:05:48.742Z,12.73
2023-04-08T18:08:16.284Z,12.00
2023-04-08T18:10:43.575Z,12.88
2023-04-08T18:13:12.059Z,12.60
2023-04-08T18:15:39.261Z,11.98
2023-04-08T18:18:06.395Z,11.98
2023-04-08T18:20:36.926Z,12.55
2023-04-08T18:23:04.526Z,12.45
2023-04-08T18:25:32.142Z,12.32
2023-04-08T18:27:59.592Z,13.60
2023-04-08T18:30:26.536Z,12.30
2023-04-08T18:32:53.649Z,12.05
2023-04-08T18:35:21.067Z,12.25
2023-04-08T18:37:48.411Z,12.48
2023-04-08T18:40:15.556Z,12.85
2023-04-08T18:42:42.633Z,12.80
2023-04-08T18:45:09.724Z,12.68
2023-04-08T18:47:37.672Z,14.18
2023-04-08T18:50:04.816Z,13.15
2023-04-08T18:52:32.375Z,13.13
2023-04-08T18:55:00.097Z,14.38
2023-04-08T18:57:27.217Z,14.50
2023-04-08T18:59:53.960Z,13.18
2023-04-08T19:02:21.747Z,14.25
2023-04-08T19:04:48.629Z,15.02
2023-04-08T19:07:17.150Z,14.73
2023-04-08T19:09:44.047Z,14.90
2023-04-08T19:12:11.256Z,15.23
2023-04-08T19:14:38.129Z,15.25
2023-04-08T19:17:05.301Z,16.00
2023-04-08T19:19:32.654Z,14.82
2023-04-08T19:22:02.762Z,15.30
2023-04-08T19:24:29.587Z,15.65
2023-04-08T19:26:56.629Z,15.40
2023-04-08T19:29:24.482Z,15.23
2023-04-08T19:31:53.048Z,15.35
2023-04-08T19:34:21.172Z,15.00
2023-04-08T19:36:49.515Z,15.23
2023-04-08T19:39:17.459Z,16.20
2023-04-08T19:41:45.370Z,16.70
2023-04-08T19:44:12.170Z,16.60
2023-04-08T19:46:39.264Z,18.10
2023-04-08T19:49:06.329Z,18.27
2023-04-08T19:51:33.456Z,17.60
2023-04-08T19:54:00.302Z,15.88
2023-04-08T19:56:27.986Z,17.52
2023-04-08T19:58:55.129Z,17.70
2023-04-08T20:01:23.854Z,18.10
2023-04-08T20:03:52.334Z,19.48
2023-04-08T20:06:19.975Z,17.98
2023-04-08T20:08:46.806Z,19.30
2023-04-08T20:11:13.940Z,18.65
2023-04-08T20:13:40.965Z,18.05
2023-04-08T20:16:08.466Z,19.45
2023-04-08T20:18:35.364Z,19.58
2023-04-08T20:21:02.589Z,19.80
2023-04-08T20:23:29.453Z,19.05
2023-04-08T20:25:56.838Z,18.45
2023-04-08T20:28:23.829Z,19.45
2023-04-08T20:30:52.417Z,19.75
2023-04-08T20:33:19.306Z,19.60
2023-04-08T20:35:47.667Z,19.40
2023-04-08T20:38:14.687Z,18.50
2023-04-08T20:40:44.150Z,19.00
2023-04-08T20:43:11.466Z,19.80
2023-04-08T20:45:38.660Z,19.27
2023-04-08T20:48:05.983Z,19.80
2023-04-08T20:50:33.184Z,19.20
2023-04-08T20:53:00.117Z,18.63
2023-04-08T20:55:27.308Z,19.50
2023-04-08T20:57:54.155Z,19.65
2023-04-08T21:00:21.394Z,18.42
2023-04-08T21:02:48.499Z,19.25
2023-04-08T21:05:15.876Z,19.33
2023-04-08T21:07:44.774Z,17.83
2023-04-08T21:10:14.860Z,19.75
2023-04-08T21:12:41.709Z,19.60
2023-04-08T21:15:09.415Z,19.45
2023-04-08T21:17:36.314Z,18.77
2023-04-08T21:20:04.669Z,19.27
2023-04-08T21:22:32.371Z,19.02
2023-04-08T21:24:59.489Z,19.98
2023-04-08T21:27:26.296Z,18.40
2023-04-08T21:29:53.509Z,19.50
2023-04-08T21:32:20.618Z,18.35
2023-04-08T21:34:47.868Z,17.63
2023-04-08T21:37:14.638Z,19.08
2023-04-08T21:39:41.715Z,20.90
2023-04-08T21:42:08.548Z,20.25
2023-04-08T21:44:35.644Z,19.35
2023-04-08T21:47:02.574Z,19.77
2023-04-08T21:49:32.739Z,20.20
2023-04-08T21:51:59.589Z,20.85
2023-04-08T21:54:26.733Z,20.58
2023-04-08T21:56:53.567Z,20.83
2023-04-08T21:59:20.868Z,20.60
2023-04-08T22:01:48.038Z,21.60
2023-04-08T22:04:15.779Z,21.60
2023-04-08T22:06:42.896Z,21.85
2023-04-08T22:09:10.104Z,21.55
2023-04-08T22:11:36.945Z,21.63
2023-04-08T22:14:04.068Z,21.80
2023-04-08T22:16:32.158Z,23.85
2023-04-08T22:18:59.325Z,24.90
2023-04-08T22:21:26.322Z,27.23
2023-04-08T22:24:03.252Z,26.35
2023-04-08T22:26:30.079Z,29.08
2023-04-08T22:28:57.336Z,28.00
2023-04-08T22:31:24.203Z,27.27
2023-04-08T22:33:51.426Z,29.02
2023-04-08T22:36:18.219Z,28.30
2023-04-08T22:38:46.373Z,27.92
2023-04-08T22:41:20.016Z,29.92
2023-04-08T22:43:47.330Z,29.63
2023-04-08T22:46:14.557Z,30.25
2023-04-08T22:48:41.828Z,28.58
2023-04-08T22:51:09.241Z,29.63
2023-04-08T22:53:37.102Z,30.17
2023-04-08T22:56:04.486Z,31.17
2023-04-08T22:58:31.658Z,33.17
2023-04-08T23:00:58.504Z,32.15
2023-04-08T23:03:25.760Z,33.00
2023-04-08T23:05:52.565Z,32.85
2023-04-08T23:08:19.666Z,34.85
2023-04-08T23:10:46.555Z,32.40
2023-04-08T23:13:14.112Z,33.15
2023-04-08T23:15:40.941Z,32.17
2023-04-08T23:18:08.062Z,30.60
2023-04-08T23:20:35.584Z,30.00
2023-04-08T23:23:03.550Z,31.00
2023-04-08T23:25:30.531Z,30.63
2023-04-08T23:27:57.718Z,30.58
2023-04-08T23:30:24.504Z,33.38
2023-04-08T23:32:51.628Z,32.30
2023-04-08T23:35:18.547Z,29.95
2023-04-08T23:37:45.826Z,31.55
2023-04-08T23:40:12.714Z,32.67
2023-04-08T23:42:39.852Z,29.95
2023-04-08T23:45:07.068Z,30.58
2023-04-08T23:47:34.212Z,30.45
2023-04-08T23:50:01.280Z,29.50
2023-04-08T23:52:28.425Z,28.63
2023-04-08T23:54:55.281Z,29.20
2023-04-08T23:57:22.338Z,28.27
2023-04-08T23:59:49.177Z,28.70
